createdAt,value
2023-05-09T00:01:31.773Z,0.94
2023-05-09T00:04:00.156Z,0.91
2023-05-09T00:06:28.603Z,0.90
2023-05-09T00:08:56.930Z,0.87
2023-05-09T00:11:25.377Z,0.84
2023-05-09T00:13:53.745Z,0.82
2023-05-09T00:16:24.474Z,0.81
2023-05-09T00:18:52.925Z,0.79
2023-05-09T00:21:21.235Z,0.77
2023-05-09T00:23:49.639Z,0.76
2023-05-09T00:26:18.006Z,0.73
2023-05-09T00:28:46.404Z,0.69
2023-05-09T00:31:15.174Z,0.65
2023-05-09T00:33:43.576Z,0.62
2023-05-09T00:36:11.979Z,0.58
2023-05-09T00:38:40.371Z,0.57
2023-05-09T00:41:08.556Z,0.54
2023-05-09T00:43:36.901Z,0.50
2023-05-09T00:46:05.318Z,0.48
2023-05-09T00:48:35.725Z,0.48
2023-05-09T00:51:04.907Z,0.46
2023-05-09T00:53:34.046Z,0.44
2023-05-09T00:56:02.409Z,0.42
2023-05-09T00:58:30.821Z,0.41
2023-05-09T01:01:00.924Z,0.39
2023-05-09T01:03:30.199Z,0.38
2023-05-09T01:06:20.094Z,0.36
2023-05-09T01:09:09.157Z,0.34
2023-05-09T01:11:43.542Z,0.31
2023-05-09T01:14:45.303Z,0.29
2023-05-09T01:17:20.181Z,0.26
2023-05-09T01:20:21.704Z,0.22
2023-05-09T01:23:05.013Z,0.21
2023-05-09T01:26:08.624Z,0.17
2023-05-09T01:28:58.638Z,0.16
2023-05-09T01:31:27.153Z,0.14
2023-05-09T01:34:00.005Z,0.12
2023-05-09T01:36:33.025Z,0.12
2023-05-09T01:39:04.532Z,0.10
2023-05-09T01:41:37.574Z,0.08
2023-05-09T01:44:12.470Z,0.05
2023-05-09T01:46:42.834Z,0.04
2023-05-09T01:49:12.122Z,0.01
2023-05-09T01:51:43.932Z,0.01
2023-05-09T01:54:15.266Z,0.00
2023-05-09T01:56:45.069Z,-0.02
2023-05-09T01:59:16.478Z,-0.05
2023-05-09T02:01:45.819Z,-0.06
2023-05-09T02:04:17.337Z,-0.08
2023-05-09T02:06:50.906Z,-0.10
2023-05-09T02:09:20.314Z,-0.10
2023-05-09T02:11:48.736Z,-0.12
2023-05-09T02:14:17.840Z,-0.13
2023-05-09T02:16:46.302Z,-0.16
2023-05-09T02:19:14.716Z,-0.17
2023-05-09T02:21:43.970Z,-0.17
2023-05-09T02:24:12.350Z,-0.19
2023-05-09T02:26:41.444Z,-0.22
2023-05-09T02:29:11.831Z,-0.25
2023-05-09T02:31:41.537Z,-0.28
2023-05-09T02:34:11.315Z,-0.32
2023-05-09T02:36:40.802Z,-0.33
2023-05-09T02:39:09.630Z,-0.35
2023-05-09T02:41:37.969Z,-0.37
2023-05-09T02:44:06.182Z,-0.41
2023-05-09T02:46:34.478Z,-0.41
2023-05-09T02:49:02.830Z,-0.43
2023-05-09T02:51:31.231Z,-0.45
2023-05-09T02:53:59.617Z,-0.48
2023-05-09T02:56:27.954Z,-0.48
2023-05-09T02:58:56.230Z,-0.50
2023-05-09T03:01:24.990Z,-0.51
2023-05-09T03:03:53.428Z,-0.51
2023-05-09T03:06:21.912Z,-0.50
2023-05-09T03:08:50.222Z,-0.49
2023-05-09T03:11:19.294Z,-0.49
2023-05-09T03:13:48.955Z,-0.47
2023-05-09T03:16:18.545Z,-0.47
2023-05-09T03:18:46.943Z,-0.46
2023-05-09T03:21:15.136Z,-0.44
2023-05-09T03:23:43.476Z,-0.43
2023-05-09T03:26:11.753Z,-0.40
2023-05-09T03:28:40.884Z,-0.39
2023-05-09T03:31:09.774Z,-0.38
2023-05-09T03:33:38.161Z,-0.36
2023-05-09T03:36:06.926Z,-0.33
2023-05-09T03:38:35.649Z,-0.31
2023-05-09T03:41:04.175Z,-0.28
2023-05-09T03:43:32.508Z,-0.25
2023-05-09T03:46:00.836Z,-0.21
2023-05-09T03:48:29.124Z,-0.18
2023-05-09T03:50:58.900Z,-0.14
2023-05-09T03:53:28.578Z,-0.08
2023-05-09T03:55:56.967Z,-0.03
2023-05-09T03:58:27.057Z,0.04
2023-05-09T04:00:56.305Z,0.11
2023-05-09T04:03:24.993Z,0.19
2023-05-09T04:05:53.936Z,0.27
2023-05-09T04:08:30.396Z,0.35
2023-05-09T04:10:58.603Z,0.42
2023-05-09T04:13:28.345Z,0.49
2023-05-09T04:15:56.884Z,0.58
2023-05-09T04:18:25.841Z,0.66
2023-05-09T04:20:54.812Z,0.75
2023-05-09T04:23:23.840Z,0.83
2023-05-09T04:25:54.453Z,0.94
2023-05-09T04:28:23.159Z,1.05
2023-05-09T04:30:51.914Z,1.19
2023-05-09T04:33:21.473Z,1.33
2023-05-09T04:35:51.929Z,1.49
2023-05-09T04:38:21.723Z,1.67
2023-05-09T04:40:50.194Z,1.85
2023-05-09T04:43:18.498Z,2.03
2023-05-09T04:45:46.812Z,2.22
2023-05-09T04:48:15.803Z,2.42
2023-05-09T04:50:44.136Z,2.61
2023-05-09T04:53:12.589Z,2.80
2023-05-09T04:55:40.944Z,3.00
2023-05-09T04:58:10.089Z,3.19
2023-05-09T05:00:39.000Z,3.38
2023-05-09T05:03:08.059Z,3.56
2023-05-09T05:05:37.698Z,3.77
2023-05-09T05:08:07.065Z,3.96
2023-05-09T05:10:37.563Z,4.17
2023-05-09T05:13:09.487Z,4.38
2023-05-09T05:15:40.868Z,4.59
2023-05-09T05:18:09.605Z,4.79
2023-05-09T05:20:41.724Z,4.98
2023-05-09T05:23:11.251Z,5.18
2023-05-09T05:25:39.728Z,5.37
2023-05-09T05:28:08.281Z,5.55
2023-05-09T05:30:37.359Z,5.74
2023-05-09T05:33:05.810Z,5.93
2023-05-09T05:35:34.378Z,6.12
2023-05-09T05:38:03.373Z,6.32
2023-05-09T05:40:31.801Z,6.52
2023-05-09T05:43:04.065Z,6.73
2023-05-09T05:45:33.319Z,6.93
2023-05-09T05:48:03.231Z,7.15
2023-05-09T05:50:33.031Z,7.35
2023-05-09T05:53:01.646Z,7.56
2023-05-09T05:55:30.151Z,7.80
2023-05-09T05:57:59.416Z,7.98
2023-05-09T06:00:28.723Z,8.15
2023-05-09T06:03:02.128Z,8.31
2023-05-09T06:05:44.677Z,8.45
2023-05-09T06:08:13.320Z,8.61
2023-05-09T06:10:53.770Z,8.74
2023-05-09T06:13:22.466Z,8.88
2023-05-09T06:16:14.977Z,9.04
2023-05-09T06:18:47.876Z,9.18
2023-05-09T06:21:16.220Z,9.35
2023-05-09T06:24:04.283Z,9.51
2023-05-09T06:26:37.383Z,9.66
2023-05-09T06:29:08.910Z,9.81
2023-05-09T06:31:39.303Z,10.02
2023-05-09T06:34:08.430Z,10.24
2023-05-09T06:36:36.668Z,10.42
2023-05-09T06:39:04.857Z,10.60
2023-05-09T06:41:33.225Z,10.72
2023-05-09T06:44:02.794Z,10.84
2023-05-09T06:46:31.112Z,11.02
2023-05-09T06:49:01.935Z,11.21
2023-05-09T06:51:31.605Z,11.36
2023-05-09T06:54:00.027Z,11.46
2023-05-09T06:56:28.427Z,11.59
2023-05-09T06:58:56.854Z,11.73
2023-05-09T07:01:25.336Z,11.86
2023-05-09T07:03:53.752Z,12.01
2023-05-09T07:06:22.126Z,12.19
2023-05-09T07:08:50.841Z,12.37
2023-05-09T07:11:19.217Z,12.50
2023-05-09T07:13:47.402Z,12.58
2023-05-09T07:16:18.166Z,12.69
2023-05-09T07:18:46.436Z,12.83
2023-05-09T07:21:14.720Z,12.92
2023-05-09T07:23:43.011Z,13.07
2023-05-09T07:26:11.353Z,13.23
2023-05-09T07:28:39.711Z,13.35
2023-05-09T07:31:09.406Z,13.44
2023-05-09T07:33:37.683Z,13.56
2023-05-09T07:36:06.281Z,13.70
2023-05-09T07:38:36.279Z,13.81
2023-05-09T07:41:04.705Z,13.84
2023-05-09T07:43:32.996Z,13.86
2023-05-09T07:46:02.275Z,13.77
2023-05-09T07:48:30.656Z,13.76
2023-05-09T07:50:58.965Z,13.81
2023-05-09T07:53:27.323Z,13.88
2023-05-09T07:55:55.704Z,13.96
2023-05-09T07:58:23.972Z,14.04
2023-05-09T08:00:52.275Z,14.06
2023-05-09T08:03:21.100Z,14.09
2023-05-09T08:05:53.183Z,14.14
2023-05-09T08:08:21.818Z,14.23
2023-05-09T08:10:50.166Z,14.33
2023-05-09T08:13:19.381Z,14.43
2023-05-09T08:15:48.343Z,14.47
2023-05-09T08:18:16.773Z,14.51
2023-05-09T08:20:45.981Z,14.59
2023-05-09T08:23:14.326Z,14.62
2023-05-09T08:25:43.131Z,14.66
2023-05-09T08:28:11.590Z,14.75
2023-05-09T08:30:40.815Z,14.92
2023-05-09T08:33:09.238Z,15.05
2023-05-09T08:35:37.511Z,15.15
2023-05-09T08:38:05.884Z,15.23
2023-05-09T08:40:38.215Z,15.26
2023-05-09T08:43:07.903Z,15.34
2023-05-09T08:45:45.415Z,15.42
2023-05-09T08:48:16.961Z,15.47
2023-05-09T08:50:45.776Z,15.51
2023-05-09T08:53:14.923Z,15.56
2023-05-09T08:55:43.463Z,15.64
2023-05-09T08:58:13.644Z,15.71
2023-05-09T09:00:42.135Z,15.74
2023-05-09T09:03:10.661Z,15.87
2023-05-09T09:05:43.461Z,16.01
2023-05-09T09:08:12.627Z,16.16
2023-05-09T09:10:43.653Z,16.32
2023-05-09T09:13:13.746Z,16.46
2023-05-09T09:15:45.433Z,16.50
2023-05-09T09:18:22.340Z,16.49
2023-05-09T09:20:58.059Z,16.62
2023-05-09T09:23:29.203Z,16.73
2023-05-09T09:26:02.670Z,16.86
2023-05-09T09:28:31.134Z,16.94
2023-05-09T09:30:59.518Z,16.91
2023-05-09T09:33:29.405Z,16.96
2023-05-09T09:35:57.996Z,17.01
2023-05-09T09:38:27.261Z,17.14
2023-05-09T09:40:57.018Z,17.24
2023-05-09T09:43:30.147Z,17.20
2023-05-09T09:46:03.460Z,17.18
2023-05-09T09:48:34.061Z,17.40
2023-05-09T09:51:09.219Z,17.60
2023-05-09T09:53:42.491Z,17.63
2023-05-09T09:56:12.143Z,17.69
2023-05-09T09:58:40.552Z,17.82
2023-05-09T10:01:12.098Z,17.97
2023-05-09T10:03:42.898Z,18.15
2023-05-09T10:06:13.211Z,18.28
2023-05-09T10:08:47.113Z,18.36
2023-05-09T10:11:15.654Z,18.40
2023-05-09T10:13:45.430Z,18.18
2023-05-09T10:16:14.631Z,17.98
2023-05-09T10:18:43.319Z,17.93
2023-05-09T10:21:16.019Z,18.03
2023-05-09T10:23:48.836Z,18.05
2023-05-09T10:26:27.833Z,18.01
2023-05-09T10:28:58.807Z,18.16
2023-05-09T10:31:29.675Z,17.91
2023-05-09T10:34:05.755Z,17.86
2023-05-09T10:36:34.869Z,17.77
2023-05-09T10:39:03.134Z,17.63
2023-05-09T10:41:32.586Z,17.89
2023-05-09T10:44:01.143Z,18.07
2023-05-09T10:46:29.925Z,17.97
2023-05-09T10:48:59.117Z,18.32
2023-05-09T10:51:27.731Z,18.57
2023-05-09T10:53:56.515Z,18.37
2023-05-09T10:56:40.043Z,18.12
2023-05-09T10:59:34.977Z,17.84
2023-05-09T11:02:04.635Z,18.05
2023-05-09T11:04:33.493Z,18.39
2023-05-09T11:07:01.779Z,18.31
2023-05-09T11:09:38.992Z,18.15
2023-05-09T11:12:07.386Z,18.17
2023-05-09T11:14:35.715Z,18.10
2023-05-09T11:17:06.784Z,17.97
2023-05-09T11:19:50.921Z,17.70
2023-05-09T11:22:28.799Z,17.54
2023-05-09T11:25:05.308Z,17.87
2023-05-09T11:27:52.446Z,18.16
2023-05-09T11:30:21.201Z,18.00
2023-05-09T11:32:55.788Z,17.92
2023-05-09T11:35:27.242Z,18.15
2023-05-09T11:38:06.787Z,18.38
2023-05-09T11:40:35.601Z,18.22
2023-05-09T11:43:03.873Z,18.01
2023-05-09T11:45:33.660Z,18.26
2023-05-09T11:48:08.982Z,18.75
2023-05-09T11:50:37.398Z,19.24
2023-05-09T11:53:08.531Z,19.63
2023-05-09T11:55:38.147Z,20.02
2023-05-09T11:58:07.414Z,20.35
2023-05-09T12:00:37.458Z,20.70
2023-05-09T12:03:06.834Z,21.17
2023-05-09T12:05:39.668Z,21.45
2023-05-09T12:08:09.428Z,21.06
2023-05-09T12:10:39.837Z,20.59
2023-05-09T12:13:10.740Z,20.12
2023-05-09T12:15:39.225Z,19.59
2023-05-09T12:18:09.114Z,19.18
2023-05-09T12:20:51.398Z,19.14
2023-05-09T12:23:19.995Z,19.34
2023-05-09T12:25:48.978Z,19.38
2023-05-09T12:28:18.592Z,19.59
2023-05-09T12:30:46.990Z,19.93
2023-05-09T12:33:16.484Z,19.80
2023-05-09T12:35:49.422Z,19.53
2023-05-09T12:38:24.638Z,19.27
2023-05-09T12:41:03.971Z,18.99
2023-05-09T12:43:38.028Z,18.79
2023-05-09T12:46:06.390Z,18.60
2023-05-09T12:48:38.121Z,18.48
2023-05-09T12:51:07.552Z,18.37
2023-05-09T12:53:41.157Z,18.72
2023-05-09T12:56:20.522Z,19.12
2023-05-09T12:58:55.851Z,19.11
2023-05-09T13:01:29.082Z,18.94
2023-05-09T13:04:05.878Z,18.72
2023-05-09T13:06:36.415Z,18.60
2023-05-09T13:09:06.628Z,18.84
2023-05-09T13:11:35.459Z,19.37
2023-05-09T13:14:04.373Z,19.56
2023-05-09T13:16:32.773Z,19.40
2023-05-09T13:19:01.888Z,19.06
2023-05-09T13:21:30.203Z,18.80
2023-05-09T13:23:58.608Z,18.70
2023-05-09T13:26:27.675Z,18.59
2023-05-09T13:28:56.855Z,18.75
2023-05-09T13:31:25.563Z,19.14
2023-05-09T13:33:54.073Z,19.45
2023-05-09T13:36:22.541Z,19.51
2023-05-09T13:38:51.103Z,19.37
2023-05-09T13:41:24.119Z,19.27
2023-05-09T13:43:52.513Z,18.92
2023-05-09T13:46:20.923Z,18.96
2023-05-09T13:48:49.262Z,19.29
2023-05-09T13:51:17.680Z,19.30
2023-05-09T13:53:46.045Z,19.08
2023-05-09T13:56:14.314Z,18.66
2023-05-09T13:58:42.676Z,18.20
2023-05-09T14:01:11.577Z,17.82
2023-05-09T14:03:39.883Z,17.54
2023-05-09T14:06:10.687Z,17.61
2023-05-09T14:08:39.939Z,17.93
2023-05-09T14:11:09.598Z,18.31
2023-05-09T14:13:37.805Z,18.72
2023-05-09T14:16:06.952Z,19.13
2023-05-09T14:18:35.414Z,19.33
2023-05-09T14:21:03.756Z,19.25
2023-05-09T14:23:32.178Z,18.89
2023-05-09T14:26:00.739Z,18.46
2023-05-09T14:28:29.035Z,18.04
2023-05-09T14:30:58.032Z,17.69
2023-05-09T14:33:27.765Z,17.63
2023-05-09T14:35:56.590Z,17.72
2023-05-09T14:38:24.953Z,17.85
2023-05-09T14:40:53.304Z,17.86
2023-05-09T14:43:22.692Z,17.85
2023-05-09T14:45:51.768Z,17.96
2023-05-09T14:48:20.083Z,18.14
2023-05-09T14:50:49.956Z,18.28
2023-05-09T14:53:18.707Z,18.42
2023-05-09T14:55:47.188Z,18.51
2023-05-09T14:58:16.438Z,18.52
2023-05-09T15:00:46.074Z,18.49
2023-05-09T15:03:14.618Z,18.47
2023-05-09T15:05:42.977Z,18.41
2023-05-09T15:08:11.296Z,18.28
2023-05-09T15:10:39.782Z,18.15
2023-05-09T15:13:08.252Z,18.05
2023-05-09T15:15:39.072Z,18.02
2023-05-09T15:18:13.357Z,17.99
2023-05-09T15:20:41.787Z,17.96
2023-05-09T15:23:13.379Z,17.96
2023-05-09T15:25:42.649Z,18.00
2023-05-09T15:28:11.029Z,17.92
2023-05-09T15:30:41.354Z,17.79
2023-05-09T15:33:09.808Z,17.51
2023-05-09T15:35:39.921Z,17.21
2023-05-09T15:38:12.138Z,16.96
2023-05-09T15:40:41.589Z,16.68
2023-05-09T15:43:09.897Z,16.44
2023-05-09T15:45:46.834Z,16.31
2023-05-09T15:48:16.481Z,16.21
2023-05-09T15:50:45.357Z,16.14
2023-05-09T15:53:15.793Z,16.12
2023-05-09T15:55:44.795Z,16.11
2023-05-09T15:58:14.225Z,16.05
2023-05-09T16:00:42.760Z,15.94
2023-05-09T16:03:11.168Z,15.81
2023-05-09T16:05:41.094Z,15.69
2023-05-09T16:08:09.599Z,15.57
2023-05-09T16:10:38.159Z,15.42
2023-05-09T16:13:07.727Z,15.27
2023-05-09T16:15:36.856Z,15.13
2023-05-09T16:18:05.474Z,15.01
2023-05-09T16:20:37.333Z,14.91
2023-05-09T16:23:05.812Z,14.79
2023-05-09T16:25:35.557Z,14.68
2023-05-09T16:28:05.149Z,14.60
2023-05-09T16:30:33.492Z,14.57
2023-05-09T16:33:01.912Z,14.57
2023-05-09T16:35:32.697Z,14.58
2023-05-09T16:38:01.907Z,14.59
2023-05-09T16:40:30.403Z,14.62
2023-05-09T16:43:01.329Z,14.64
2023-05-09T16:45:29.741Z,14.63
2023-05-09T16:48:00.658Z,14.62
2023-05-09T16:50:30.908Z,14.57
2023-05-09T16:52:59.520Z,14.50
2023-05-09T16:55:28.768Z,14.44
2023-05-09T16:57:57.204Z,14.35
2023-05-09T17:00:25.581Z,14.25
2023-05-09T17:02:54.758Z,14.15
2023-05-09T17:05:23.278Z,14.05
2023-05-09T17:07:53.782Z,13.97
2023-05-09T17:10:23.142Z,13.87
2023-05-09T17:12:53.773Z,13.76
2023-05-09T17:15:22.149Z,13.66
2023-05-09T17:17:50.632Z,13.57
2023-05-09T17:20:19.083Z,13.46
2023-05-09T17:22:47.472Z,13.36
2023-05-09T17:25:17.048Z,13.28
2023-05-09T17:27:45.655Z,13.17
2023-05-09T17:30:14.249Z,13.07
2023-05-09T17:32:43.036Z,12.97
2023-05-09T17:35:12.430Z,12.84
2023-05-09T17:37:40.950Z,12.72
2023-05-09T17:40:10.013Z,12.61
2023-05-09T17:42:38.714Z,12.49
2023-05-09T17:45:07.875Z,12.39
2023-05-09T17:47:37.788Z,12.29
2023-05-09T17:50:10.776Z,12.19
2023-05-09T17:52:39.070Z,12.10
2023-05-09T17:55:08.476Z,12.02
2023-05-09T17:57:36.745Z,11.94
2023-05-09T18:00:09.627Z,11.85
2023-05-09T18:02:43.935Z,11.77
2023-05-09T18:05:14.011Z,11.71
2023-05-09T18:07:43.976Z,11.65
2023-05-09T18:10:12.788Z,11.57
2023-05-09T18:12:41.914Z,11.51
2023-05-09T18:15:10.685Z,11.44
2023-05-09T18:17:39.534Z,11.39
2023-05-09T18:20:08.750Z,11.33
2023-05-09T18:22:37.423Z,11.26
2023-05-09T18:25:06.441Z,11.18
2023-05-09T18:27:34.674Z,11.12
2023-05-09T18:30:02.968Z,11.04
2023-05-09T18:32:32.524Z,10.97
2023-05-09T18:35:01.062Z,10.87
2023-05-09T18:37:29.397Z,10.77
2023-05-09T18:39:57.757Z,10.69
2023-05-09T18:42:26.215Z,10.56
2023-05-09T18:44:54.624Z,10.42
2023-05-09T18:47:27.835Z,10.29
2023-05-09T18:49:56.159Z,10.17
2023-05-09T18:52:24.656Z,10.02
2023-05-09T18:54:53.536Z,9.81
2023-05-09T18:57:21.778Z,9.66
2023-05-09T18:59:52.998Z,9.55
2023-05-09T19:02:22.610Z,9.41
2023-05-09T19:04:51.839Z,9.27
2023-05-09T19:07:20.273Z,9.15
2023-05-09T19:09:48.601Z,9.03
2023-05-09T19:12:17.765Z,8.90
2023-05-09T19:14:46.074Z,8.77
2023-05-09T19:17:14.360Z,8.64
2023-05-09T19:19:42.773Z,8.52
2023-05-09T19:22:11.067Z,8.41
2023-05-09T19:24:39.288Z,8.31
2023-05-09T19:27:07.897Z,8.22
2023-05-09T19:29:36.195Z,8.13
2023-05-09T19:32:05.956Z,8.04
2023-05-09T19:34:34.476Z,7.95
2023-05-09T19:37:03.826Z,7.88
2023-05-09T19:39:40.135Z,7.80
2023-05-09T19:42:08.565Z,7.78
2023-05-09T19:44:36.924Z,7.79
2023-05-09T19:47:05.400Z,7.82
2023-05-09T19:49:33.778Z,7.84
2023-05-09T19:52:02.035Z,7.92
2023-05-09T19:54:31.515Z,8.05
2023-05-09T19:56:59.906Z,8.16
2023-05-09T19:59:29.537Z,8.27
2023-05-09T20:01:58.736Z,8.34
2023-05-09T20:04:27.210Z,8.38
2023-05-09T20:06:55.522Z,8.41
2023-05-09T20:09:23.917Z,8.44
2023-05-09T20:11:52.374Z,8.48
2023-05-09T20:14:22.431Z,8.52
2023-05-09T20:16:50.879Z,8.55
2023-05-09T20:19:20.933Z,8.59
2023-05-09T20:21:50.537Z,8.62
2023-05-09T20:24:19.042Z,8.64
2023-05-09T20:26:47.413Z,8.66
2023-05-09T20:29:15.705Z,8.70
2023-05-09T20:31:44.064Z,8.75
2023-05-09T20:34:16.326Z,8.82
2023-05-09T20:36:49.396Z,8.88
2023-05-09T20:39:19.045Z,8.96
2023-05-09T20:41:48.707Z,9.03
2023-05-09T20:44:17.976Z,9.09
2023-05-09T20:46:46.638Z,9.15
2023-05-09T20:49:15.598Z,9.21
2023-05-09T20:51:44.068Z,9.25
2023-05-09T20:54:12.409Z,9.28
2023-05-09T20:56:40.699Z,9.30
2023-05-09T20:59:08.984Z,9.30
2023-05-09T21:01:37.448Z,9.31
2023-05-09T21:04:08.463Z,9.32
2023-05-09T21:06:37.081Z,9.32
2023-05-09T21:09:06.289Z,9.31
2023-05-09T21:11:35.112Z,9.31
2023-05-09T21:14:03.344Z,9.31
2023-05-09T21:16:31.950Z,9.30
2023-05-09T21:19:02.790Z,9.24
2023-05-09T21:21:34.281Z,9.17
2023-05-09T21:24:04.333Z,9.09
2023-05-09T21:26:32.735Z,9.00
2023-05-09T21:29:01.000Z,8.92
2023-05-09T21:31:29.301Z,8.84
2023-05-09T21:33:59.424Z,8.76
2023-05-09T21:36:28.311Z,8.73
2023-05-09T21:38:56.581Z,8.72
2023-05-09T21:41:24.979Z,8.73
2023-05-09T21:43:53.228Z,8.73
2023-05-09T21:46:21.522Z,8.75
2023-05-09T21:48:49.893Z,8.75
2023-05-09T21:51:18.079Z,8.75
2023-05-09T21:53:46.544Z,8.73
2023-05-09T21:56:15.422Z,8.71
2023-05-09T21:58:43.753Z,8.69
2023-05-09T22:01:11.991Z,8.67
2023-05-09T22:03:40.463Z,8.66
2023-05-09T22:06:08.800Z,8.66
2023-05-09T22:08:37.144Z,8.63
2023-05-09T22:11:05.651Z,8.60
2023-05-09T22:13:34.008Z,8.56
2023-05-09T22:16:03.001Z,8.51
2023-05-09T22:18:31.529Z,8.46
2023-05-09T22:20:59.804Z,8.41
2023-05-09T22:23:28.189Z,8.36
2023-05-09T22:25:56.469Z,8.32
2023-05-09T22:28:24.727Z,8.26
2023-05-09T22:30:53.043Z,8.22
2023-05-09T22:33:21.673Z,8.18
2023-05-09T22:35:49.993Z,8.12
2023-05-09T22:38:18.295Z,8.05
2023-05-09T22:40:46.644Z,7.99
2023-05-09T22:43:14.960Z,7.95
2023-05-09T22:45:44.077Z,7.91
2023-05-09T22:48:12.578Z,7.87
2023-05-09T22:50:41.386Z,7.83
2023-05-09T22:53:09.668Z,7.79
2023-05-09T22:55:38.799Z,7.74
2023-05-09T22:58:08.060Z,7.68
2023-05-09T23:00:36.389Z,7.64
2023-05-09T23:03:05.352Z,7.60
2023-05-09T23:05:33.730Z,7.56
2023-05-09T23:08:02.044Z,7.54
2023-05-09T23:10:30.409Z,7.52
2023-05-09T23:12:58.769Z,7.47
2023-05-09T23:15:27.272Z,7.41
2023-05-09T23:17:55.607Z,7.35
2023-05-09T23:20:23.917Z,7.28
2023-05-09T23:22:52.187Z,7.24
2023-05-09T23:25:20.729Z,7.21
2023-05-09T23:27:48.877Z,7.18
2023-05-09T23:30:17.436Z,7.14
2023-05-09T23:32:46.478Z,7.10
2023-05-09T23:35:15.131Z,7.07
2023-05-09T23:37:43.310Z,7.04
2023-05-09T23:40:12.535Z,7.04
2023-05-09T23:42:40.794Z,7.02
2023-05-09T23:45:10.256Z,7.01
2023-05-09T23:47:38.638Z,6.99
2023-05-09T23:50:07.868Z,6.98
2023-05-09T23:52:36.246Z,6.96
2023-05-09T23:55:05.379Z,6.95
2023-05-09T23:57:33.749Z,6.96
